createdAt,value
2023-01-10T00:01:50.410Z,5.90
2023-01-10T00:04:17.079Z,5.90
2023-01-10T00:06:43.770Z,6.00
2023-01-10T00:09:11.461Z,6.10
2023-01-10T00:11:56.629Z,6.10
2023-01-10T00:14:23.236Z,6.00
2023-01-10T00:16:49.891Z,6.00
2023-01-10T00:19:16.503Z,6.00
2023-01-10T00:21:43.140Z,6.00
2023-01-10T00:24:18.747Z,6.00
2023-01-10T00:26:50.993Z,5.90
2023-01-10T00:29:19.836Z,5.70
2023-01-10T00:31:46.932Z,5.70
2023-01-10T00:34:14.160Z,5.50
2023-01-10T00:36:41.980Z,5.50
2023-01-10T00:39:11.041Z,5.40
2023-01-10T00:41:56.421Z,5.30
2023-01-10T00:44:23.243Z,5.30
2023-01-10T00:46:49.960Z,5.10
2023-01-10T00:49:16.611Z,5.00
2023-01-10T00:51:44.642Z,5.00
2023-01-10T00:54:13.241Z,5.10
2023-01-10T00:56:40.082Z,4.90
2023-01-10T00:59:07.512Z,4.70
2023-01-10T01:01:34.362Z,4.60
2023-01-10T01:04:01.094Z,4.70
2023-01-10T01:06:27.933Z,4.50
2023-01-10T01:08:54.544Z,4.60
2023-01-10T01:11:21.257Z,4.70
2023-01-10T01:13:47.925Z,4.80
2023-01-10T01:16:14.686Z,4.60
2023-01-10T01:18:41.360Z,4.50
2023-01-10T01:21:08.599Z,4.70
2023-01-10T01:23:35.781Z,4.60
2023-01-10T01:26:02.740Z,4.70
2023-01-10T01:28:29.370Z,4.90
2023-01-10T01:30:56.101Z,4.90
2023-01-10T01:33:23.106Z,4.90
2023-01-10T01:35:50.645Z,4.90
2023-01-10T01:38:18.342Z,4.90
2023-01-10T01:40:45.261Z,5.00
2023-01-10T01:43:34.379Z,5.10
2023-01-10T01:46:04.209Z,5.10
2023-01-10T01:48:38.064Z,5.10
2023-01-10T01:51:22.519Z,5.20
2023-01-10T01:53:52.499Z,5.40
2023-01-10T01:56:30.764Z,5.20
2023-01-10T01:59:06.825Z,5.20
2023-01-10T02:01:35.496Z,5.20
2023-01-10T02:04:13.275Z,5.00
2023-01-10T02:06:40.973Z,5.10
2023-01-10T02:09:25.560Z,5.10
2023-01-10T02:11:52.589Z,5.10
2023-01-10T02:14:20.266Z,5.30
2023-01-10T02:16:47.048Z,5.40
2023-01-10T02:19:37.901Z,5.40
2023-01-10T02:22:32.016Z,5.50
2023-01-10T02:25:26.622Z,5.30
2023-01-10T02:28:21.206Z,5.20
2023-01-10T02:31:11.163Z,5.40
2023-01-10T02:33:49.592Z,5.20
2023-01-10T02:36:35.015Z,5.40
2023-01-10T02:39:01.625Z,5.40
2023-01-10T02:41:40.014Z,5.30
2023-01-10T02:44:18.998Z,5.40
2023-01-10T02:46:48.445Z,5.30
2023-01-10T02:49:15.211Z,5.30
2023-01-10T02:51:41.890Z,5.20
2023-01-10T02:54:18.558Z,5.10
2023-01-10T02:57:18.787Z,5.00
2023-01-10T03:00:00.374Z,5.00
2023-01-10T03:02:42.046Z,4.90
2023-01-10T03:05:39.805Z,4.90
2023-01-10T03:08:31.910Z,5.10
2023-01-10T03:11:09.520Z,5.10
2023-01-10T03:13:51.892Z,5.20
2023-01-10T03:16:23.368Z,5.20
2023-01-10T03:19:03.602Z,5.30
2023-01-10T03:21:32.524Z,5.30
2023-01-10T03:24:10.675Z,5.20
2023-01-10T03:26:53.794Z,5.00
2023-01-10T03:29:44.944Z,4.80
2023-01-10T03:32:14.937Z,4.70
2023-01-10T03:34:41.767Z,4.70
2023-01-10T03:37:34.333Z,4.70
2023-01-10T03:40:16.301Z,4.70
2023-01-10T03:43:17.030Z,4.70
2023-01-10T03:45:54.292Z,4.70
2023-01-10T03:48:23.824Z,4.70
2023-01-10T03:50:51.736Z,4.60
2023-01-10T03:53:18.814Z,4.70
2023-01-10T03:55:45.734Z,4.70
2023-01-10T03:58:12.376Z,4.90
2023-01-10T04:00:40.348Z,4.80
2023-01-10T04:03:09.604Z,5.10
2023-01-10T04:05:36.318Z,5.10
2023-01-10T04:08:03.123Z,5.10
2023-01-10T04:10:29.982Z,5.10
2023-01-10T04:13:00.917Z,5.10
2023-01-10T04:15:28.395Z,5.20
2023-01-10T04:17:56.367Z,5.10
2023-01-10T04:20:26.335Z,5.20
2023-01-10T04:22:54.708Z,5.30
2023-01-10T04:25:23.188Z,5.40
2023-01-10T04:27:50.917Z,5.50
2023-01-10T04:30:18.947Z,5.40
2023-01-10T04:32:46.302Z,5.30
2023-01-10T04:35:13.002Z,5.30
2023-01-10T04:37:39.651Z,5.40
2023-01-10T04:40:06.949Z,5.50
2023-01-10T04:42:33.616Z,5.40
2023-01-10T04:45:00.265Z,5.30
2023-01-10T04:47:26.929Z,5.30
2023-01-10T04:49:53.575Z,5.30
2023-01-10T04:52:20.334Z,5.30
2023-01-10T04:54:47.108Z,5.40
2023-01-10T04:57:13.732Z,5.40
2023-01-10T04:59:40.391Z,5.50
2023-01-10T05:02:07.159Z,5.50
2023-01-10T05:04:33.906Z,5.50
2023-01-10T05:07:00.574Z,5.60
2023-01-10T05:09:27.222Z,5.60
2023-01-10T05:11:53.913Z,5.70
2023-01-10T05:14:20.667Z,5.60
2023-01-10T05:16:47.377Z,5.70
2023-01-10T05:19:14.026Z,5.80
2023-01-10T05:21:40.711Z,5.70
2023-01-10T05:24:08.733Z,5.70
2023-01-10T05:26:35.438Z,5.60
2023-01-10T05:29:02.096Z,5.60
2023-01-10T05:31:28.827Z,5.70
2023-01-10T05:33:55.521Z,5.70
2023-01-10T05:36:22.228Z,5.60
2023-01-10T05:38:48.996Z,5.50
2023-01-10T05:41:15.704Z,5.60
2023-01-10T05:43:42.337Z,5.60
2023-01-10T05:46:09.620Z,5.60
2023-01-10T05:48:36.638Z,5.70
2023-01-10T05:51:03.899Z,5.70
2023-01-10T05:53:30.726Z,5.50
2023-01-10T05:55:59.404Z,5.50
2023-01-10T05:58:26.935Z,5.60
2023-01-10T06:00:55.321Z,5.50
2023-01-10T06:03:22.469Z,5.50
2023-01-10T06:05:49.330Z,5.60
2023-01-10T06:08:16.623Z,5.40
2023-01-10T06:10:43.643Z,5.50
2023-01-10T06:13:10.312Z,5.30
2023-01-10T06:15:37.308Z,5.40
2023-01-10T06:18:04.333Z,5.30
2023-01-10T06:20:31.090Z,5.20
2023-01-10T06:22:58.657Z,5.10
2023-01-10T06:25:25.404Z,5.00
2023-01-10T06:27:52.095Z,5.00
2023-01-10T06:30:18.804Z,5.20
2023-01-10T06:32:45.532Z,5.10
2023-01-10T06:35:12.156Z,4.90
2023-01-10T06:37:38.852Z,4.90
2023-01-10T06:40:06.610Z,4.80
2023-01-10T06:42:33.272Z,4.80
2023-01-10T06:45:00.265Z,4.80
2023-01-10T06:47:26.962Z,4.70
2023-01-10T06:49:53.654Z,4.70
2023-01-10T06:52:20.315Z,4.50
2023-01-10T06:54:46.987Z,4.50
2023-01-10T06:57:13.717Z,4.50
2023-01-10T06:59:40.339Z,4.50
2023-01-10T07:02:07.203Z,4.50
2023-01-10T07:04:34.056Z,4.60
2023-01-10T07:07:00.910Z,4.60
2023-01-10T07:09:28.446Z,4.80
2023-01-10T07:11:55.443Z,5.00
2023-01-10T07:14:22.540Z,5.10
2023-01-10T07:16:49.471Z,5.10
2023-01-10T07:19:17.554Z,5.20
2023-01-10T07:21:44.735Z,5.30
2023-01-10T07:24:11.474Z,5.40
2023-01-10T07:26:38.137Z,5.40
2023-01-10T07:29:04.797Z,5.30
2023-01-10T07:31:31.477Z,5.40
2023-01-10T07:33:58.184Z,5.40
2023-01-10T07:36:24.878Z,5.40
2023-01-10T07:38:51.587Z,5.60
2023-01-10T07:41:18.272Z,5.60
2023-01-10T07:43:44.918Z,5.60
2023-01-10T07:46:12.461Z,5.70
2023-01-10T07:48:41.764Z,5.60
2023-01-10T07:51:08.956Z,5.70
2023-01-10T07:53:35.598Z,5.50
2023-01-10T07:56:03.447Z,5.60
2023-01-10T07:58:30.656Z,5.70
2023-01-10T08:01:02.513Z,5.60
2023-01-10T08:03:30.879Z,5.50
2023-01-10T08:06:02.598Z,5.60
2023-01-10T08:08:29.843Z,5.70
2023-01-10T08:10:57.294Z,5.80
2023-01-10T08:13:23.942Z,5.90
2023-01-10T08:15:52.343Z,5.90
2023-01-10T08:18:20.683Z,5.90
2023-01-10T08:20:52.412Z,5.80
2023-01-10T08:23:20.297Z,5.90
2023-01-10T08:25:47.425Z,5.90
2023-01-10T08:28:14.669Z,6.00
2023-01-10T08:30:41.434Z,6.00
2023-01-10T08:33:09.090Z,6.10
2023-01-10T08:35:41.261Z,6.10
2023-01-10T08:38:08.540Z,6.20
2023-01-10T08:40:35.526Z,6.20
2023-01-10T08:43:12.445Z,6.10
2023-01-10T08:45:39.359Z,6.20
2023-01-10T08:48:06.671Z,6.20
2023-01-10T08:50:33.344Z,6.20
2023-01-10T08:53:01.085Z,6.20
2023-01-10T08:55:30.900Z,6.30
2023-01-10T08:58:00.873Z,6.20
2023-01-10T09:00:28.455Z,6.40
2023-01-10T09:02:55.201Z,6.60
2023-01-10T09:05:27.367Z,6.40
2023-01-10T09:07:59.727Z,6.40
2023-01-10T09:10:26.841Z,6.40
2023-01-10T09:12:56.355Z,6.50
2023-01-10T09:15:25.015Z,6.50
2023-01-10T09:17:59.532Z,6.60
2023-01-10T09:20:28.430Z,6.60
2023-01-10T09:22:56.730Z,6.20
2023-01-10T09:25:24.086Z,6.40
2023-01-10T09:28:01.805Z,6.40
2023-01-10T09:30:30.249Z,6.40
2023-01-10T09:32:58.393Z,6.50
2023-01-10T09:35:26.617Z,6.50
2023-01-10T09:37:58.722Z,6.50
2023-01-10T09:40:50.424Z,6.40
2023-01-10T09:43:41.703Z,6.50
2023-01-10T09:46:14.343Z,6.40
2023-01-10T09:48:55.117Z,6.60
2023-01-10T09:51:43.370Z,6.70
2023-01-10T09:54:28.910Z,6.70
2023-01-10T09:56:56.173Z,6.80
2023-01-10T09:59:36.099Z,6.80
2023-01-10T10:02:30.658Z,6.80
2023-01-10T10:05:25.286Z,6.40
2023-01-10T10:07:57.751Z,6.20
2023-01-10T10:10:39.500Z,6.20
2023-01-10T10:13:27.602Z,6.10
2023-01-10T10:16:16.835Z,6.30
2023-01-10T10:19:17.826Z,6.40
2023-01-10T10:22:12.754Z,6.30
2023-01-10T10:24:58.633Z,6.30
2023-01-10T10:27:36.134Z,6.40
2023-01-10T10:30:11.805Z,6.70
2023-01-10T10:33:06.011Z,6.60
2023-01-10T10:35:44.040Z,6.30
2023-01-10T10:38:34.896Z,6.40
2023-01-10T10:41:01.900Z,6.60
2023-01-10T10:43:35.351Z,6.80
2023-01-10T10:46:08.542Z,6.70
2023-01-10T10:49:00.889Z,7.00
2023-01-10T10:51:47.985Z,7.20
2023-01-10T10:54:16.395Z,7.10
2023-01-10T10:56:44.156Z,7.10
2023-01-10T10:59:16.825Z,7.30
2023-01-10T11:01:49.789Z,7.40
2023-01-10T11:04:20.904Z,7.00
2023-01-10T11:06:50.976Z,7.40
2023-01-10T11:09:25.336Z,7.20
2023-01-10T11:11:54.266Z,6.90
2023-01-10T11:14:45.864Z,7.00
2023-01-10T11:17:25.611Z,7.00
2023-01-10T11:19:57.682Z,7.20
2023-01-10T11:22:25.822Z,7.00
2023-01-10T11:24:59.247Z,6.90
2023-01-10T11:27:30.103Z,7.10
2023-01-10T11:30:02.356Z,6.90
2023-01-10T11:32:39.084Z,6.80
2023-01-10T11:35:29.442Z,6.70
2023-01-10T11:38:02.148Z,7.10
2023-01-10T11:40:31.316Z,7.10
2023-01-10T11:42:59.972Z,7.20
2023-01-10T11:45:29.376Z,7.30
2023-01-10T11:48:34.261Z,7.20
2023-01-10T11:51:18.894Z,7.10
2023-01-10T11:53:47.542Z,7.20
2023-01-10T11:56:22.831Z,7.20
2023-01-10T11:58:49.553Z,7.30
2023-01-10T12:01:43.088Z,7.30
2023-01-10T12:04:21.096Z,7.30
2023-01-10T12:06:54.275Z,7.40
2023-01-10T12:09:39.699Z,7.70
2023-01-10T12:12:20.395Z,7.80
2023-01-10T12:14:47.411Z,7.70
2023-01-10T12:17:26.118Z,7.20
2023-01-10T12:19:55.432Z,7.40
2023-01-10T12:22:35.784Z,7.30
2023-01-10T12:25:08.904Z,7.40
2023-01-10T12:27:35.607Z,7.20
2023-01-10T12:30:12.612Z,7.40
2023-01-10T12:32:46.787Z,7.30
2023-01-10T12:35:48.785Z,7.50
2023-01-10T12:38:43.495Z,7.40
2023-01-10T12:41:33.654Z,7.40
2023-01-10T12:44:14.862Z,7.10
2023-01-10T12:47:09.159Z,7.30
2023-01-10T12:49:48.984Z,7.20
2023-01-10T12:52:32.888Z,7.20
2023-01-10T12:55:00.246Z,7.30
2023-01-10T12:57:35.884Z,7.20
2023-01-10T13:00:06.139Z,7.20
2023-01-10T13:02:43.919Z,7.10
2023-01-10T13:05:21.366Z,7.20
2023-01-10T13:07:49.798Z,7.30
2023-01-10T13:10:21.372Z,7.30
2023-01-10T13:12:59.017Z,7.20
2023-01-10T13:15:37.303Z,7.40
2023-01-10T13:18:17.298Z,7.40
2023-01-10T13:20:44.219Z,7.70
2023-01-10T13:23:29.932Z,7.50
2023-01-10T13:26:09.922Z,7.40
2023-01-10T13:28:40.668Z,7.40
2023-01-10T13:31:22.568Z,7.50
2023-01-10T13:33:54.349Z,7.50
2023-01-10T13:36:25.603Z,7.80
2023-01-10T13:38:58.739Z,7.80
2023-01-10T13:42:16.168Z,7.70
2023-01-10T13:45:01.518Z,7.40
2023-01-10T13:47:40.595Z,7.30
2023-01-10T13:50:22.600Z,7.50
2023-01-10T13:53:12.437Z,7.50
2023-01-10T13:55:39.021Z,7.50
2023-01-10T13:58:17.861Z,7.60
2023-01-10T14:01:11.157Z,7.30
2023-01-10T14:03:58.092Z,7.40
2023-01-10T14:06:27.754Z,7.30
2023-01-10T14:08:56.908Z,7.50
2023-01-10T14:11:48.966Z,7.60
2023-01-10T14:14:39.687Z,7.40
2023-01-10T14:17:26.494Z,7.30
2023-01-10T14:20:15.983Z,7.30
2023-01-10T14:23:07.277Z,7.30
2023-01-10T14:25:36.464Z,7.40
2023-01-10T14:28:05.358Z,7.30
2023-01-10T14:30:40.198Z,7.30
2023-01-10T14:33:19.107Z,7.40
2023-01-10T14:35:50.229Z,7.30
2023-01-10T14:38:38.838Z,7.20
2023-01-10T14:41:22.928Z,7.20
2023-01-10T14:44:01.955Z,7.10
2023-01-10T14:46:43.438Z,7.00
2023-01-10T14:49:22.880Z,7.10
2023-01-10T14:51:50.612Z,7.00
2023-01-10T14:54:23.566Z,6.90
2023-01-10T14:56:52.482Z,7.00
2023-01-10T14:59:26.455Z,7.10
2023-01-10T15:01:58.971Z,7.10
2023-01-10T15:04:35.324Z,7.00
2023-01-10T15:07:11.632Z,6.90
2023-01-10T15:09:38.935Z,7.00
2023-01-10T15:12:11.108Z,7.00
2023-01-10T15:14:38.255Z,7.00
2023-01-10T15:17:06.524Z,6.90
2023-01-10T15:19:36.472Z,6.80
2023-01-10T15:22:04.601Z,7.00
2023-01-10T15:24:34.738Z,6.70
2023-01-10T15:27:08.752Z,6.60
2023-01-10T15:29:36.911Z,6.70
2023-01-10T15:32:26.100Z,6.60
2023-01-10T15:34:55.610Z,6.60
2023-01-10T15:37:26.464Z,6.50
2023-01-10T15:39:57.255Z,6.30
2023-01-10T15:42:23.996Z,6.30
2023-01-10T15:44:55.707Z,6.30
2023-01-10T15:47:38.719Z,6.40
2023-01-10T15:50:27.154Z,6.50
2023-01-10T15:52:57.169Z,6.40
2023-01-10T15:55:39.151Z,6.40
2023-01-10T15:58:12.599Z,6.60
2023-01-10T16:00:44.261Z,6.60
2023-01-10T16:03:33.302Z,6.60
2023-01-10T16:06:02.034Z,6.60
2023-01-10T16:08:35.292Z,6.60
2023-01-10T16:11:06.640Z,6.40
2023-01-10T16:13:35.350Z,6.50
2023-01-10T16:16:05.632Z,6.50
2023-01-10T16:18:33.794Z,6.50
2023-01-10T16:21:02.715Z,6.60
2023-01-10T16:23:34.263Z,6.60
2023-01-10T16:26:04.339Z,6.60
2023-01-10T16:28:35.957Z,6.50
2023-01-10T16:31:07.041Z,6.70
2023-01-10T16:33:33.914Z,6.60
2023-01-10T16:36:00.982Z,6.50
2023-01-10T16:38:28.913Z,6.50
2023-01-10T16:41:21.310Z,6.50
2023-01-10T16:43:49.405Z,6.60
2023-01-10T16:46:16.147Z,6.50
2023-01-10T16:48:45.012Z,6.80
2023-01-10T16:51:21.656Z,6.80
2023-01-10T16:53:49.004Z,6.90
2023-01-10T16:56:21.611Z,6.80
2023-01-10T16:58:49.523Z,6.70
2023-01-10T17:01:19.472Z,6.60
2023-01-10T17:03:46.936Z,6.50
2023-01-10T17:06:14.934Z,6.70
2023-01-10T17:08:42.024Z,6.50
2023-01-10T17:11:25.931Z,6.60
2023-01-10T17:13:52.953Z,6.50
2023-01-10T17:16:19.994Z,6.40
2023-01-10T17:18:47.518Z,6.30
2023-01-10T17:21:19.259Z,6.30
2023-01-10T17:23:46.307Z,6.30
2023-01-10T17:26:15.272Z,6.50
2023-01-10T17:28:42.287Z,6.40
2023-01-10T17:31:09.340Z,6.40
2023-01-10T17:33:36.654Z,6.50
2023-01-10T17:36:04.380Z,6.50
2023-01-10T17:38:31.476Z,6.40
2023-01-10T17:41:02.778Z,6.50
2023-01-10T17:43:30.678Z,6.40
2023-01-10T17:46:00.569Z,6.50
2023-01-10T17:48:27.334Z,6.50
2023-01-10T17:50:59.184Z,6.30
2023-01-10T17:53:26.381Z,6.40
2023-01-10T17:55:53.427Z,6.60
2023-01-10T17:58:21.578Z,6.60
2023-01-10T18:00:48.914Z,6.60
2023-01-10T18:03:16.295Z,6.60
2023-01-10T18:05:54.413Z,6.60
2023-01-10T18:08:21.778Z,6.50
2023-01-10T18:10:49.015Z,6.60
2023-01-10T18:13:17.433Z,6.40
2023-01-10T18:15:49.212Z,6.40
2023-01-10T18:18:16.751Z,6.30
2023-01-10T18:20:44.764Z,6.30
2023-01-10T18:23:21.460Z,6.30
2023-01-10T18:25:56.577Z,6.30
2023-01-10T18:28:39.470Z,6.40
2023-01-10T18:31:16.484Z,6.40
2023-01-10T18:33:43.890Z,6.30
2023-01-10T18:36:16.571Z,6.30
2023-01-10T18:38:44.443Z,6.40
2023-01-10T18:41:11.459Z,6.50
2023-01-10T18:43:38.181Z,6.30
2023-01-10T18:46:14.405Z,6.30
2023-01-10T18:48:41.397Z,6.40
2023-01-10T18:51:09.980Z,6.50
2023-01-10T18:53:36.752Z,6.40
2023-01-10T18:56:04.862Z,6.40
2023-01-10T18:58:34.297Z,6.50
2023-01-10T19:01:08.493Z,6.40
2023-01-10T19:03:35.889Z,6.50
2023-01-10T19:06:07.481Z,6.50
2023-01-10T19:08:36.240Z,6.40
2023-01-10T19:11:13.428Z,6.30
2023-01-10T19:13:40.915Z,6.30
2023-01-10T19:16:15.177Z,6.20
2023-01-10T19:18:42.618Z,6.30
2023-01-10T19:21:14.950Z,6.20
2023-01-10T19:23:48.614Z,6.10
2023-01-10T19:26:15.595Z,6.00
2023-01-10T19:28:43.945Z,6.00
2023-01-10T19:31:28.533Z,5.90
2023-01-10T19:33:58.706Z,5.80
2023-01-10T19:36:25.758Z,5.90
2023-01-10T19:38:57.401Z,5.90
2023-01-10T19:41:25.348Z,5.90
2023-01-10T19:44:00.135Z,5.90
2023-01-10T19:46:28.044Z,5.90
2023-01-10T19:48:58.876Z,5.90
2023-01-10T19:51:25.790Z,5.90
2023-01-10T19:53:53.116Z,5.70
2023-01-10T19:56:21.942Z,5.90
2023-01-10T19:58:49.865Z,5.90
2023-01-10T20:01:22.206Z,6.10
2023-01-10T20:03:48.920Z,6.10
2023-01-10T20:06:20.737Z,6.00
2023-01-10T20:08:48.703Z,5.90
2023-01-10T20:11:15.662Z,6.00
2023-01-10T20:13:44.895Z,6.00
2023-01-10T20:16:16.929Z,6.00
2023-01-10T20:18:44.367Z,5.80
2023-01-10T20:21:13.096Z,5.80
2023-01-10T20:23:41.011Z,5.80
2023-01-10T20:26:22.906Z,5.50
2023-01-10T20:28:50.611Z,5.70
2023-01-10T20:31:20.573Z,5.60
2023-01-10T20:33:47.639Z,5.60
2023-01-10T20:36:17.046Z,5.70
2023-01-10T20:38:44.398Z,5.70
2023-01-10T20:41:17.423Z,5.70
2023-01-10T20:43:44.781Z,5.80
2023-01-10T20:46:13.853Z,5.70
2023-01-10T20:48:41.642Z,5.70
2023-01-10T20:51:12.090Z,5.60
2023-01-10T20:53:38.961Z,5.50
2023-01-10T20:56:12.571Z,5.60
2023-01-10T20:58:42.439Z,5.60
2023-01-10T21:01:10.026Z,5.70
2023-01-10T21:03:37.230Z,5.60
2023-01-10T21:06:04.109Z,5.60
2023-01-10T21:08:30.852Z,5.70
2023-01-10T21:10:58.207Z,5.70
2023-01-10T21:13:25.326Z,5.60
2023-01-10T21:15:54.998Z,5.60
2023-01-10T21:18:24.634Z,5.70
2023-01-10T21:20:55.936Z,5.80
2023-01-10T21:23:25.392Z,5.60
2023-01-10T21:25:52.820Z,5.60
2023-01-10T21:28:20.091Z,5.70
2023-01-10T21:30:47.697Z,5.60
2023-01-10T21:33:14.432Z,5.80
2023-01-10T21:35:41.275Z,5.60
2023-01-10T21:38:07.924Z,5.50
2023-01-10T21:40:35.213Z,5.70
2023-01-10T21:43:02.571Z,5.60
2023-01-10T21:45:29.248Z,5.60
2023-01-10T21:47:56.359Z,5.60
2023-01-10T21:50:23.352Z,5.60
2023-01-10T21:52:50.133Z,5.70
2023-01-10T21:55:17.459Z,5.80
2023-01-10T21:57:44.375Z,5.70
2023-01-10T22:00:11.685Z,5.80
2023-01-10T22:02:38.759Z,5.80
2023-01-10T22:05:05.978Z,5.60
2023-01-10T22:07:32.639Z,5.80
2023-01-10T22:09:59.304Z,5.80
2023-01-10T22:12:25.996Z,5.90
2023-01-10T22:14:52.676Z,5.90
2023-01-10T22:17:19.389Z,5.90
2023-01-10T22:19:46.062Z,5.90
2023-01-10T22:22:13.751Z,5.90
2023-01-10T22:24:44.764Z,5.90
2023-01-10T22:27:11.443Z,5.90
2023-01-10T22:29:38.428Z,6.00
2023-01-10T22:32:05.133Z,6.00
2023-01-10T22:34:32.065Z,6.10
2023-01-10T22:36:58.924Z,6.10
2023-01-10T22:39:25.887Z,6.10
2023-01-10T22:41:55.384Z,6.10
2023-01-10T22:44:26.630Z,6.10
2023-01-10T22:46:55.031Z,6.20
2023-01-10T22:49:22.534Z,6.10
2023-01-10T22:51:49.494Z,6.10
2023-01-10T22:54:16.283Z,6.20
2023-01-10T22:56:44.427Z,6.20
2023-01-10T22:59:11.512Z,6.20
2023-01-10T23:01:38.571Z,6.20
2023-01-10T23:04:05.349Z,6.20
2023-01-10T23:06:32.116Z,6.20
2023-01-10T23:08:59.394Z,6.20
2023-01-10T23:11:26.056Z,6.20
2023-01-10T23:13:52.796Z,6.20
2023-01-10T23:16:22.461Z,6.20
2023-01-10T23:18:49.563Z,6.30
2023-01-10T23:21:17.075Z,6.30
2023-01-10T23:23:43.732Z,6.30
2023-01-10T23:26:12.598Z,6.30
2023-01-10T23:28:46.840Z,6.30
2023-01-10T23:31:15.976Z,6.30
2023-01-10T23:33:42.626Z,6.20
2023-01-10T23:36:10.113Z,6.20
2023-01-10T23:38:37.166Z,6.30
2023-01-10T23:41:04.706Z,6.30
2023-01-10T23:43:31.571Z,6.30
2023-01-10T23:45:58.990Z,6.40
2023-01-10T23:48:25.825Z,6.40
2023-01-10T23:50:52.507Z,6.50
2023-01-10T23:53:19.478Z,6.40
2023-01-10T23:55:46.358Z,6.40
2023-01-10T23:58:13.444Z,6.40
